Time;durP1;ratioP1;P1;durP2;ratioP2;P2;SDS_P1;SDS_P2;PMS_P1;PMS_P2;Temp;Humidity;BMP_temperature;BMP_pressure;BME280_temperature;BME280_humidity;BME280_pressure;Samples;Min_cycle;Max_cycle;Signal;HPM_P1;HPM_P2
2022/03/11 00:01:18;;;;;;;114.50;48.70;;;;;;;-5.31;52.81;100779.70;106107;1273;98084;-69
2022/03/11 00:03:49;;;;;;;110.80;45.80;;;;;;;-5.33;52.99;100782.93;106087;1274;109078;-67
2022/03/11 00:06:19;;;;;;;111.90;47.00;;;;;;;-5.35;52.85;100779.77;106098;1274;97765;-67
2022/03/11 00:08:51;;;;;;;116.30;48.20;;;;;;;-5.39;52.92;100776.24;106084;1274;98562;-67
2022/03/11 00:11:21;;;;;;;110.00;50.50;;;;;;;-5.41;52.86;100778.96;106111;1274;112033;-68
2022/03/11 00:13:49;;;;;;;115.50;48.00;;;;;;;-5.43;52.91;100779.10;105993;1274;97844;-68
2022/03/11 00:16:17;;;;;;;110.20;45.90;;;;;;;-5.47;52.79;100777.98;106016;1274;108116;-70
2022/03/11 00:18:51;;;;;;;108.20;45.80;;;;;;;-5.49;52.83;100777.92;106076;1274;96583;-68
2022/03/11 00:21:18;;;;;;;96.40;41.60;;;;;;;-5.53;52.74;100774.58;106021;1274;97884;-69
2022/03/11 00:23:48;;;;;;;100.80;41.90;;;;;;;-5.56;52.80;100777.45;106138;1274;111959;-68
2022/03/11 00:26:18;;;;;;;88.70;37.30;;;;;;;-5.58;52.83;100778.63;106167;1274;97957;-70
2022/03/11 00:28:46;;;;;;;90.70;36.50;;;;;;;-5.60;52.85;100775.81;106039;1274;108666;-68
2022/03/11 00:31:19;;;;;;;89.00;37.00;;;;;;;-5.62;52.90;100778.03;106123;1274;98432;-70
2022/03/11 00:33:47;;;;;;;81.40;35.60;;;;;;;-5.65;52.79;100774.50;106210;1274;97881;-70
2022/03/11 00:36:17;;;;;;;82.00;33.90;;;;;;;-5.68;52.82;100773.06;106120;1276;111958;-68
2022/03/11 00:38:50;;;;;;;87.20;34.10;;;;;;;-5.72;52.87;100770.05;106076;1274;97753;-69
2022/03/11 00:41:18;;;;;;;77.30;32.20;;;;;;;-5.79;52.61;100770.06;106031;1274;107717;-69
2022/03/11 00:43:49;;;;;;;81.30;32.90;;;;;;;-5.88;52.59;100770.38;105993;1274;96386;-68
2022/03/11 00:46:21;;;;;;;88.60;33.20;;;;;;;-5.93;52.76;100766.14;106065;1274;97871;-69
2022/03/11 00:48:49;;;;;;;85.60;33.80;;;;;;;-5.96;52.64;100763.83;106150;1274;111364;-69
2022/03/11 00:51:17;;;;;;;85.90;33.80;;;;;;;-6.00;52.71;100762.71;106107;1274;96513;-69
2022/03/11 00:53:44;;;;;;;85.70;36.80;;;;;;;-6.02;52.84;100761.83;106147;1274;107693;-69
2022/03/11 00:56:12;;;;;;;85.60;34.30;;;;;;;-6.03;52.79;100759.39;106119;1273;97857;-69
2022/03/11 00:58:40;;;;;;;86.00;35.80;;;;;;;-6.05;52.78;100758.66;105989;1274;97736;-70
2022/03/11 01:01:08;;;;;;;78.50;34.90;;;;;;;-6.08;52.72;100757.89;106143;1274;112237;-68
2022/03/11 01:03:39;;;;;;;77.10;33.40;;;;;;;-6.11;52.76;100761.80;106103;1273;96671;-68
2022/03/11 01:06:07;;;;;;;77.90;32.10;;;;;;;-6.13;52.77;100766.07;106127;1274;108218;-70
2022/03/11 01:08:37;;;;;;;82.80;32.20;;;;;;;-6.17;52.76;100765.99;106077;1274;97824;-69
2022/03/11 01:11:11;;;;;;;74.90;31.90;;;;;;;-6.19;52.76;100767.50;106165;1274;97862;-68
2022/03/11 01:13:41;;;;;;;;;;;;;;;-6.20;52.85;100766.98;106206;1274;111415;-67
2022/03/11 01:16:11;;;;;;;78.60;30.10;;;;;;;-6.23;52.87;100773.43;106105;1274;97884;-67
2022/03/11 01:18:42;;;;;;;71.40;29.50;;;;;;;-6.25;52.82;100769.95;106085;1274;108324;-68
2022/03/11 01:21:15;;;;;;;71.90;27.90;;;;;;;-6.26;52.83;100772.52;106083;1274;95356;-67
2022/03/11 01:23:43;;;;;;;60.70;27.60;;;;;;;-6.26;52.94;100771.81;106175;1274;97951;-70
2022/03/11 01:26:16;;;;;;;66.30;25.90;;;;;;;-6.28;52.87;100764.34;106197;1273;112684;-70
2022/03/11 01:28:49;;;;;;;63.20;25.80;;;;;;;-6.29;53.09;100764.51;106105;1274;97876;-70
2022/03/11 01:31:17;;;;;;;63.20;24.40;;;;;;;-6.32;52.89;100763.42;106061;1274;107936;-69
2022/03/11 01:33:48;;;;;;;63.40;25.30;;;;;;;-6.36;52.79;100766.05;106039;1274;97882;-68
2022/03/11 01:36:16;;;;;;;60.80;24.80;;;;;;;-6.38;53.01;100767.38;106125;1273;97864;-68
2022/03/11 01:38:46;;;;;;;57.70;24.40;;;;;;;-6.40;52.93;100769.92;106115;1273;111791;-68
2022/03/11 01:41:16;;;;;;;71.20;27.70;;;;;;;-6.41;52.89;100772.15;106148;1273;98014;-68
2022/03/11 01:43:59;;;;;;;60.60;26.50;;;;;;;-6.42;53.11;100774.05;106119;1274;108430;-68
2022/03/11 01:46:30;;;;;;;55.80;23.70;;;;;;;-6.43;53.04;100773.66;106157;1273;98575;-69
2022/03/11 01:49:02;;;;;;;57.60;23.70;;;;;;;-6.45;52.89;100776.90;106161;1273;95201;-67
2022/03/11 01:51:37;;;;;;;59.00;24.90;;;;;;;-6.47;52.96;100783.05;106099;1273;111402;-67
2022/03/11 01:54:08;;;;;;;58.80;22.50;;;;;;;-6.48;52.95;100789.25;106196;1273;97868;-69
2022/03/11 01:56:40;;;;;;;53.00;23.00;;;;;;;-6.50;52.97;100789.72;106171;1273;107766;-69
2022/03/11 01:59:11;;;;;;;54.90;23.10;;;;;;;-6.52;53.04;100792.95;106127;1274;97875;-69
2022/03/11 02:01:42;;;;;;;52.20;22.30;;;;;;;-6.54;53.18;100795.69;106187;1273;97989;-68
2022/03/11 02:04:10;;;;;;;55.40;23.90;;;;;;;-6.55;52.94;100794.27;106034;1274;110713;-69
2022/03/11 02:06:39;;;;;;;55.80;24.30;;;;;;;-6.55;53.10;100794.09;106197;1273;97960;-69
2022/03/11 02:09:12;;;;;;;56.60;22.90;;;;;;;-6.56;53.00;100792.52;106217;1273;108095;-68
2022/03/11 02:11:40;;;;;;;60.30;25.70;;;;;;;-6.57;52.99;100791.63;106096;1273;95333;-68
2022/03/11 02:14:11;;;;;;;60.00;24.90;;;;;;;-6.63;52.96;100794.41;106204;1273;97879;-69
2022/03/11 02:16:41;;;;;;;57.20;24.30;;;;;;;-6.66;53.14;100792.42;106182;1272;112106;-68
2022/03/11 02:19:11;;;;;;;55.10;23.50;;;;;;;-6.66;53.00;100792.95;106210;1273;97899;-68
2022/03/11 02:21:47;;;;;;;58.90;22.40;;;;;;;-6.68;53.19;100790.64;106114;1273;107740;-68
2022/03/11 02:24:18;;;;;;;57.40;22.20;;;;;;;-6.71;53.07;100790.76;106122;1273;97765;-70
2022/03/11 02:26:46;;;;;;;55.80;23.70;;;;;;;-6.75;53.03;100790.16;106109;1273;97876;-71
2022/03/11 02:29:16;;;;;;;54.00;23.00;;;;;;;-6.78;53.10;100793.19;106108;1273;111423;-69
2022/03/11 02:31:46;;;;;;;53.30;23.20;;;;;;;-6.80;53.13;100790.72;106154;1273;98044;-68
2022/03/11 02:34:16;;;;;;;55.40;22.70;;;;;;;-6.81;53.06;100789.80;106170;1273;107678;-66
2022/03/11 02:36:47;;;;;;;54.80;23.50;;;;;;;-6.83;53.13;100786.83;106192;1273;98002;-69
2022/03/11 02:39:18;;;;;;;52.90;22.10;;;;;;;-6.83;53.17;100792.34;106089;1272;97948;-67
2022/03/11 02:41:51;;;;;;;57.90;23.80;;;;;;;-6.86;53.25;100786.41;106124;1273;111253;-68
2022/03/11 02:44:22;;;;;;;58.10;24.20;;;;;;;-6.86;53.07;100788.13;106179;1273;95238;-68
2022/03/11 02:46:53;;;;;;;55.70;22.20;;;;;;;-6.87;53.30;100781.38;106148;1273;108357;-67
2022/03/11 02:49:23;;;;;;;54.70;21.90;;;;;;;-6.87;53.23;100784.99;106238;1273;97974;-68
2022/03/11 02:51:56;;;;;;;60.20;23.00;;;;;;;-6.87;53.19;100787.58;106132;1274;97878;-70
2022/03/11 02:54:27;;;;;;;59.40;23.20;;;;;;;-6.89;53.16;100789.28;106231;1273;110003;-70
2022/03/11 02:56:55;;;;;;;58.80;22.90;;;;;;;-6.91;53.26;100791.80;106136;1274;97811;-70
2022/03/11 02:59:28;;;;;;;57.90;23.30;;;;;;;-6.93;53.11;100793.83;106210;1273;108291;-69
2022/03/11 03:01:56;;;;;;;53.00;21.30;;;;;;;-6.94;53.35;100793.63;106213;1273;96538;-71
2022/03/11 03:04:27;;;;;;;55.40;23.70;;;;;;;-6.96;53.22;100796.00;106248;1273;95398;-70
2022/03/11 03:06:57;;;;;;;58.90;22.20;;;;;;;-6.97;53.35;100796.48;106210;1271;112561;-69
2022/03/11 03:09:27;;;;;;;58.10;24.70;;;;;;;-6.97;53.22;100795.44;106240;1273;97434;-70
2022/03/11 03:11:57;;;;;;;57.80;23.20;;;;;;;-6.99;53.25;100799.54;106205;1273;108761;-68
2022/03/11 03:14:28;;;;;;;59.50;21.90;;;;;;;-7.01;53.16;100799.98;106126;1273;97772;-67
2022/03/11 03:16:58;;;;;;;56.60;22.00;;;;;;;-7.01;53.40;100804.99;106075;1274;97949;-68
2022/03/11 03:19:29;;;;;;;55.50;23.90;;;;;;;-7.01;53.39;100803.60;106197;1273;111950;-66
2022/03/11 03:21:59;;;;;;;54.60;23.80;;;;;;;-7.04;53.17;100808.53;106213;1273;97809;-67
2022/03/11 03:24:29;;;;;;;56.50;21.30;;;;;;;-7.04;53.39;100813.00;106065;1274;108466;-68
2022/03/11 03:26:59;;;;;;;52.60;21.50;;;;;;;-7.06;53.37;100814.52;106241;1273;97941;-67
2022/03/11 03:29:33;;;;;;;54.70;22.50;;;;;;;-7.08;53.39;100814.10;106241;1273;98436;-67
2022/03/11 03:32:05;;;;;;;61.00;22.30;;;;;;;-7.10;53.39;100814.41;106252;1273;112037;-67
2022/03/11 03:34:38;;;;;;;54.70;21.40;;;;;;;-7.12;53.36;100817.27;106254;1273;95383;-70
2022/03/11 03:37:10;;;;;;;52.30;21.70;;;;;;;-7.13;53.46;100820.70;106004;1274;292177;-69
2022/03/11 03:39:42;;;;;;;51.00;21.90;;;;;;;-7.16;53.30;100821.84;106171;1273;97838;-68
2022/03/11 03:42:11;;;;;;;57.60;23.40;;;;;;;-7.19;53.35;100817.80;106195;1273;97860;-68
2022/03/11 03:44:42;;;;;;;55.00;23.10;;;;;;;-7.21;53.41;100821.34;106250;1273;111395;-68
2022/03/11 03:47:12;;;;;;;57.20;22.20;;;;;;;-7.22;53.47;100818.23;106101;1273;95225;-69
2022/03/11 03:49:43;;;;;;;54.80;23.10;;;;;;;-7.24;53.42;100817.81;106204;1273;108333;-69
2022/03/11 03:52:13;;;;;;;49.40;21.10;;;;;;;-7.25;53.34;100821.25;106200;1273;95375;-69
2022/03/11 03:54:44;;;;;;;55.50;21.60;;;;;;;-7.26;53.36;100817.06;106239;1273;97741;-69
2022/03/11 03:57:18;;;;;;;50.70;20.10;;;;;;;-7.27;53.47;100816.52;106217;1273;111447;-69
2022/03/11 03:59:46;;;;;;;50.90;20.70;;;;;;;-7.30;53.44;100815.58;106215;1273;95187;-68
2022/03/11 04:02:16;;;;;;;53.20;21.50;;;;;;;-7.32;53.41;100812.23;106133;1274;108375;-69
2022/03/11 04:04:50;;;;;;;53.00;21.00;;;;;;;-7.34;53.49;100809.63;106106;1274;97903;-68
2022/03/11 04:07:18;;;;;;;55.60;22.20;;;;;;;-7.35;53.49;100811.65;106117;1275;97969;-68
2022/03/11 04:09:48;;;;;;;53.10;21.20;;;;;;;-7.37;53.39;100809.54;106132;1274;113375;-70
2022/03/11 04:12:19;;;;;;;56.00;22.40;;;;;;;-7.38;53.38;100808.64;106125;1274;97947;-68
2022/03/11 04:14:52;;;;;;;48.20;20.90;;;;;;;-7.40;53.48;100808.60;106108;1274;108233;-70
2022/03/11 04:17:19;;;;;;;48.30;20.10;;;;;;;-7.41;53.44;100810.28;106125;1274;96290;-69
2022/03/11 04:19:50;;;;;;;63.70;20.70;;;;;;;-7.44;53.45;100811.41;106149;1274;97871;-68
2022/03/11 04:22:20;;;;;;;46.40;19.90;;;;;;;-7.46;53.58;100806.17;106214;1273;111356;-69
2022/03/11 04:24:53;;;;;;;58.40;20.90;;;;;;;-7.48;53.37;100807.31;106105;1273;97676;-68
2022/03/11 04:27:24;;;;;;;46.60;19.60;;;;;;;-7.49;53.50;100810.38;106049;1274;107714;-68
2022/03/11 04:29:52;;;;;;;53.30;21.80;;;;;;;-7.52;53.61;100814.95;106104;1274;98042;-67
2022/03/11 04:32:22;;;;;;;55.40;21.70;;;;;;;-7.55;53.70;100817.27;106200;1273;95266;-67
2022/03/11 04:34:53;;;;;;;52.20;21.80;;;;;;;-7.58;53.57;100819.63;106116;1273;111724;-66
2022/03/11 04:37:21;;;;;;;50.00;20.50;;;;;;;-7.58;53.63;100819.28;106132;1273;97997;-66
2022/03/11 04:39:49;;;;;;;54.20;22.10;;;;;;;-7.58;53.65;100815.81;106110;1273;106690;-67
2022/03/11 04:42:18;;;;;;;53.20;22.40;;;;;;;-7.62;53.52;100819.31;105965;1274;98036;-69
2022/03/11 04:44:48;;;;;;;52.20;22.50;;;;;;;-7.67;53.60;100816.59;106115;1273;97736;-69
2022/03/11 04:47:18;;;;;;;54.00;23.20;;;;;;;-7.68;53.67;100818.11;106102;1273;111577;-69
2022/03/11 04:49:48;;;;;;;53.40;24.00;;;;;;;-7.68;53.73;100817.77;106070;1276;97906;-66
2022/03/11 04:52:16;;;;;;;51.10;22.60;;;;;;;-7.68;53.69;100814.66;106033;1274;108332;-67
2022/03/11 04:54:50;;;;;;;46.60;20.20;;;;;;;-7.69;53.74;100819.96;106097;1275;96581;-68
2022/03/11 04:57:18;;;;;;;53.10;20.60;;;;;;;-7.70;53.67;100814.10;106042;1274;95291;-68
2022/03/11 04:59:48;;;;;;;53.30;21.20;;;;;;;-7.72;53.64;100819.89;106102;1273;110209;-68
2022/03/11 05:02:31;;;;;;;47.00;19.80;;;;;;;-7.75;53.57;100821.70;106103;1273;95365;-68
2022/03/11 05:05:05;;;;;;;55.00;21.30;;;;;;;-7.77;53.76;100822.33;106096;1273;107643;-69
2022/03/11 05:07:38;;;;;;;49.80;19.20;;;;;;;-7.77;53.66;100820.63;106182;1273;98074;-68
2022/03/11 05:10:10;;;;;;;53.10;21.20;;;;;;;-7.78;53.75;100818.00;106101;1273;95282;-70
2022/03/11 05:12:41;;;;;;;46.20;19.80;;;;;;;-7.78;53.70;100823.02;106130;1273;111333;-69
2022/03/11 05:15:11;;;;;;;50.10;20.40;;;;;;;-7.78;53.67;100823.51;106180;1273;98036;-72
2022/03/11 05:17:40;;;;;;;46.40;19.50;;;;;;;-7.79;53.81;100825.73;106092;1273;106400;-69
2022/03/11 05:20:11;;;;;;;48.30;21.80;;;;;;;-7.79;53.79;100825.21;106147;1273;97957;-68
2022/03/11 05:22:41;;;;;;;51.60;21.00;;;;;;;-7.79;53.93;100827.46;106100;1273;96215;-68
2022/03/11 05:25:12;;;;;;;54.60;22.00;;;;;;;-7.80;53.90;100825.36;106085;1273;112047;-68
2022/03/11 05:27:42;;;;;;;48.90;20.40;;;;;;;-7.80;53.86;100831.20;106185;1274;95343;-68
2022/03/11 05:30:12;;;;;;;49.40;19.60;;;;;;;-7.81;53.90;100829.11;106092;1274;107946;-69
2022/03/11 05:32:49;;;;;;;52.50;19.40;;;;;;;-7.80;53.99;100827.08;106140;1273;96290;-70
2022/03/11 05:35:19;;;;;;;48.40;18.50;;;;;;;-7.79;53.96;100826.41;106097;1274;97870;-69
2022/03/11 05:37:50;;;;;;;49.30;19.10;;;;;;;-7.78;54.06;100825.91;106224;1273;111537;-69
2022/03/11 05:40:20;;;;;;;49.90;20.20;;;;;;;-7.77;54.01;100829.21;106139;1274;97893;-72
2022/03/11 05:42:51;;;;;;;48.50;22.10;;;;;;;-7.77;53.86;100832.52;106113;1274;108462;-69
2022/03/11 05:45:21;;;;;;;51.20;21.80;;;;;;;-7.73;54.08;100831.90;105991;1274;97888;-69
2022/03/11 05:47:52;;;;;;;54.30;24.00;;;;;;;-7.70;54.14;100832.86;106219;1273;95171;-69
2022/03/11 05:50:25;;;;;;;49.70;22.40;;;;;;;-7.68;54.13;100836.36;106039;1273;112037;-69
2022/03/11 05:52:53;;;;;;;52.20;21.10;;;;;;;-7.68;53.94;100838.44;106114;1273;95364;-68
2022/03/11 05:55:23;;;;;;;50.30;21.50;;;;;;;-7.65;54.08;100843.52;106048;1274;108764;-68
2022/03/11 05:57:54;;;;;;;53.20;20.10;;;;;;;-7.62;54.22;100847.42;106087;1275;95249;-66
2022/03/11 06:00:24;;;;;;;52.50;22.30;;;;;;;-7.58;54.23;100851.16;106226;1274;97845;-68
2022/03/11 06:02:55;;;;;;;50.50;22.20;;;;;;;-7.53;54.25;100847.51;106189;1273;112100;-68
2022/03/11 06:05:25;;;;;;;52.80;22.60;;;;;;;-7.48;54.32;100850.56;106194;1274;97164;-68
2022/03/11 06:07:54;;;;;;;56.10;25.80;;;;;;;-7.43;54.27;100856.92;106088;1274;107591;-70
2022/03/11 06:10:27;;;;;;;63.60;26.50;;;;;;;-7.39;54.24;100856.52;106224;1273;97946;-70
2022/03/11 06:12:58;;;;;;;74.20;32.20;;;;;;;-7.35;54.35;100857.86;106124;1275;97833;-69
2022/03/11 06:15:31;;;;;;;77.90;32.30;;;;;;;-7.30;54.33;100859.02;106107;1273;111000;-69
2022/03/11 06:18:01;;;;;;;75.20;34.00;;;;;;;-7.27;54.50;100859.45;106107;1273;97765;-69
2022/03/11 06:20:33;;;;;;;72.60;32.00;;;;;;;-7.27;54.38;100862.39;106045;1273;108394;-69
2022/03/11 06:23:01;;;;;;;87.00;35.70;;;;;;;-7.25;54.38;100860.88;105996;1274;97973;-69
2022/03/11 06:25:31;;;;;;;87.00;36.00;;;;;;;-7.21;54.41;100865.33;106103;1273;98456;-69
2022/03/11 06:28:04;;;;;;;85.60;36.60;;;;;;;-7.15;54.53;100867.20;106148;1273;111396;-69
2022/03/11 06:30:32;;;;;;;78.30;32.40;;;;;;;-7.12;54.39;100870.37;106250;1274;97951;-68
2022/03/11 06:33:06;;;;;;;69.10;28.20;;;;;;;-7.08;54.48;100872.58;106195;1273;108378;-68
2022/03/11 06:35:34;;;;;;;83.80;33.90;;;;;;;-7.04;54.59;100875.29;106213;1273;97768;-67
2022/03/11 06:38:06;;;;;;;76.90;29.60;;;;;;;-6.98;54.51;100877.34;106096;1275;98664;-68
2022/03/11 06:40:34;;;;;;;73.40;28.50;;;;;;;-6.91;54.76;100875.64;106111;1275;111932;-67
2022/03/11 06:43:02;;;;;;;66.90;26.50;;;;;;;-6.83;54.75;100877.58;105811;1274;97973;-68
2022/03/11 06:45:31;;;;;;;65.70;27.80;;;;;;;-6.77;54.80;100876.54;106027;1274;107810;-69
2022/03/11 06:47:59;;;;;;;67.80;27.70;;;;;;;-6.71;54.80;100873.59;106159;1274;97920;-67
2022/03/11 06:50:28;;;;;;;75.70;29.90;;;;;;;-6.65;54.89;100877.72;106056;1274;97906;-68
2022/03/11 06:52:56;;;;;;;68.20;28.60;;;;;;;-6.58;54.88;100883.24;106085;1274;111693;-69
2022/03/11 06:55:24;;;;;;;68.80;30.00;;;;;;;-6.52;54.93;100885.47;106087;1274;97976;-69
2022/03/11 06:57:53;;;;;;;74.80;29.50;;;;;;;-6.44;54.96;100883.77;106074;1274;108371;-67
2022/03/11 07:00:21;;;;;;;74.20;30.00;;;;;;;-6.35;55.00;100882.13;106120;1274;98695;-68
2022/03/11 07:02:49;;;;;;;62.10;26.70;;;;;;;-6.27;55.13;100885.77;106086;1274;97853;-67
2022/03/11 07:05:17;;;;;;;56.90;23.70;;;;;;;-6.18;54.99;100889.44;106080;1274;111987;-67
2022/03/11 07:07:46;;;;;;;49.00;20.60;;;;;;;-6.10;55.08;100887.21;106074;1274;97963;-68
2022/03/11 07:10:16;;;;;;;42.10;17.20;;;;;;;-6.01;55.03;100887.77;106060;1274;107861;-68
2022/03/11 07:12:44;;;;;;;42.90;17.00;;;;;;;-5.96;55.09;100887.53;106019;1274;97864;-67
2022/03/11 07:15:12;;;;;;;46.20;19.00;;;;;;;-5.87;55.12;100889.98;106201;1274;98495;-67
2022/03/11 07:17:40;;;;;;;45.40;18.10;;;;;;;-5.80;55.15;100887.02;106141;1274;111996;-67
2022/03/11 07:20:09;;;;;;;41.40;18.90;;;;;;;-5.74;55.13;100890.30;106128;1275;97842;-67
2022/03/11 07:22:37;;;;;;;45.00;17.10;;;;;;;-5.67;55.10;100883.70;106083;1274;107769;-67
2022/03/11 07:25:06;;;;;;;38.50;16.00;;;;;;;-5.60;55.15;100881.61;106084;1274;98069;-68
2022/03/11 07:27:33;;;;;;;40.70;15.70;;;;;;;-5.54;55.25;100885.73;106182;1274;97972;-71
2022/03/11 07:30:03;;;;;;;36.50;15.50;;;;;;;-5.48;55.10;100882.71;106037;1274;112860;-68
2022/03/11 07:32:31;;;;;;;42.30;16.80;;;;;;;-5.42;55.26;100886.48;105998;1274;96346;-67
2022/03/11 07:34:59;;;;;;;38.90;15.40;;;;;;;-5.35;55.38;100878.17;106073;1274;108271;-68
2022/03/11 07:37:27;;;;;;;35.60;13.90;;;;;;;-5.27;55.39;100880.42;106074;1274;98431;-68
2022/03/11 07:39:55;;;;;;;41.00;14.60;;;;;;;-5.20;55.34;100878.51;106095;1275;97876;-67
2022/03/11 07:42:24;;;;;;;37.40;14.50;;;;;;;-5.12;55.32;100879.00;106015;1274;111992;-68
2022/03/11 07:44:52;;;;;;;39.40;15.10;;;;;;;-5.05;55.45;100879.14;106151;1274;97888;-68
2022/03/11 07:47:20;;;;;;;34.60;13.50;;;;;;;-4.98;55.34;100881.36;106191;1274;108418;-69
2022/03/11 07:49:48;;;;;;;37.90;14.80;;;;;;;-4.91;55.37;100886.00;106081;1274;97887;-68
2022/03/11 07:52:17;;;;;;;38.90;16.20;;;;;;;-4.90;55.38;100890.86;106068;1274;97854;-68
2022/03/11 07:54:45;;;;;;;39.10;13.30;;;;;;;-4.84;55.32;100887.52;106085;1274;111023;-68
2022/03/11 07:57:13;;;;;;;39.30;14.90;;;;;;;-4.75;55.54;100888.37;106139;1274;97970;-68
2022/03/11 07:59:41;;;;;;;39.30;14.20;;;;;;;-4.66;55.58;100887.84;106047;1274;108188;-69
2022/03/11 08:02:09;;;;;;;33.40;13.10;;;;;;;-4.61;55.33;100889.33;106169;1273;95377;-70
2022/03/11 08:04:38;;;;;;;34.00;14.40;;;;;;;-4.58;55.32;100885.41;106165;1274;97878;-72
2022/03/11 08:07:11;;;;;;;35.70;13.40;;;;;;;-4.54;55.38;100886.18;106164;1274;111182;-69
2022/03/11 08:09:39;;;;;;;31.60;12.50;;;;;;;-4.46;55.31;100880.94;106107;1274;96984;-68
2022/03/11 08:12:08;;;;;;;33.10;12.30;;;;;;;-4.39;55.52;100885.40;105933;1275;107789;-70
2022/03/11 08:14:37;;;;;;;35.60;11.70;;;;;;;-4.31;55.52;100883.98;106065;1274;96420;-68
2022/03/11 08:17:06;;;;;;;32.30;11.10;;;;;;;-4.23;55.53;100879.61;106092;1274;97952;-68
2022/03/11 08:19:36;;;;;;;33.70;11.60;;;;;;;-4.16;55.40;100878.54;106127;1274;113319;-66
2022/03/11 08:22:04;;;;;;;35.20;12.80;;;;;;;-4.09;55.44;100875.86;106416;1274;97974;-70
2022/03/11 08:24:32;;;;;;;34.90;13.10;;;;;;;-4.03;55.72;100875.09;106081;1274;108295;-69
2022/03/11 08:27:00;;;;;;;32.30;10.50;;;;;;;-3.96;55.53;100875.04;106020;1274;95235;-68
2022/03/11 08:29:32;;;;;;;26.10;9.60;;;;;;;-3.87;55.72;100877.41;106020;1274;98082;-68
2022/03/11 08:32:03;;;;;;;24.70;8.30;;;;;;;-3.81;55.51;100876.98;106082;1274;111332;-68
2022/03/11 08:34:32;;;;;;;28.90;9.40;;;;;;;-3.72;55.68;100875.92;106123;1274;96409;-68
2022/03/11 08:37:20;;;;;;;28.50;9.90;;;;;;;-3.59;55.81;100879.55;106067;1274;108369;-69
2022/03/11 08:39:48;;;;;;;29.10;10.10;;;;;;;-3.44;55.68;100883.42;106137;1274;97873;-69
2022/03/11 08:42:17;;;;;;;32.10;12.10;;;;;;;-3.32;55.53;100881.85;106107;1274;97851;-68
2022/03/11 08:44:46;;;;;;;25.60;9.60;;;;;;;-3.27;55.66;100881.22;106090;1274;111881;-69
2022/03/11 08:47:14;;;;;;;27.80;10.10;;;;;;;-3.16;55.62;100887.27;106166;1274;97826;-69
2022/03/11 08:49:43;;;;;;;28.90;11.30;;;;;;;-2.51;56.06;100882.94;106073;1274;107253;-69
2022/03/11 08:52:11;;;;;;;31.70;11.90;;;;;;;-1.20;56.22;100873.98;106124;1274;97870;-68
2022/03/11 08:54:39;;;;;;;27.90;9.40;;;;;;;0.04;56.61;100867.27;106177;1274;97826;-69
2022/03/11 08:57:07;;;;;;;26.40;10.10;;;;;;;1.16;56.64;100863.84;106150;1274;111997;-72
2022/03/11 08:59:35;;;;;;;23.90;8.30;;;;;;;1.94;56.64;100857.05;106201;1274;97840;-71
2022/03/11 09:02:07;;;;;;;31.00;11.30;;;;;;;2.40;56.43;100855.05;106131;1274;107842;-69
2022/03/11 09:04:36;;;;;;;25.40;8.90;;;;;;;2.88;56.78;100846.61;106124;1274;97973;-69
2022/03/11 09:07:05;;;;;;;20.90;7.70;;;;;;;3.16;57.07;100842.24;106124;1274;96644;-68
2022/03/11 09:09:36;;;;;;;25.50;8.60;;;;;;;3.35;56.79;100843.36;106115;1274;111211;-68
2022/03/11 09:12:04;;;;;;;27.80;10.00;;;;;;;3.60;56.62;100841.25;106173;1274;97897;-67
2022/03/11 09:14:34;;;;;;;23.50;8.30;;;;;;;3.81;56.97;100840.22;106101;1273;107815;-67
2022/03/11 09:17:02;;;;;;;23.00;8.70;;;;;;;4.03;56.92;100839.33;106154;1274;97979;-68
2022/03/11 09:19:31;;;;;;;21.10;7.70;;;;;;;4.21;56.88;100834.11;106184;1274;97900;-68
2022/03/11 09:21:59;;;;;;;24.10;9.40;;;;;;;4.31;56.42;100830.92;106152;1273;112088;-68
2022/03/11 09:24:27;;;;;;;30.80;9.00;;;;;;;4.44;56.60;100828.23;106156;1273;95230;-68
2022/03/11 09:27:09;;;;;;;21.00;8.60;;;;;;;4.50;56.29;100827.41;106123;1274;108207;-69
2022/03/11 09:29:41;;;;;;;25.80;10.90;;;;;;;4.57;56.36;100824.83;106068;1274;97964;-70
2022/03/11 09:32:09;;;;;;;24.30;10.10;;;;;;;4.71;56.36;100825.41;106120;1273;98324;-69
2022/03/11 09:34:37;;;;;;;22.40;8.20;;;;;;;4.84;56.05;100824.82;106092;1274;112068;-67
2022/03/11 09:37:07;;;;;;;20.70;8.70;;;;;;;4.86;55.91;100821.27;106076;1274;97976;-68
2022/03/11 09:39:35;;;;;;;22.90;9.20;;;;;;;4.96;56.11;100828.95;106155;1274;108259;-68
2022/03/11 09:42:05;;;;;;;21.50;9.20;;;;;;;5.03;55.72;100825.64;106143;1274;97900;-69
2022/03/11 09:44:33;;;;;;;20.70;8.80;;;;;;;5.20;56.06;100826.52;106209;1273;97873;-69
2022/03/11 09:47:03;;;;;;;21.30;8.10;;;;;;;5.47;55.89;100827.48;106214;1273;109321;-68
2022/03/11 09:49:35;;;;;;;22.30;9.50;;;;;;;5.69;55.74;100818.00;106183;1273;95201;-68
2022/03/11 09:52:09;;;;;;;22.50;8.60;;;;;;;5.94;55.64;100817.02;106081;1273;107535;-68
2022/03/11 09:54:37;;;;;;;23.00;8.70;;;;;;;6.18;55.62;100819.78;106040;1274;97888;-67
2022/03/11 09:57:07;;;;;;;21.30;9.00;;;;;;;6.34;55.59;100818.13;105987;1274;97872;-69
2022/03/11 09:59:35;;;;;;;25.40;10.00;;;;;;;6.37;55.34;100815.23;106055;1274;111246;-69
2022/03/11 10:02:24;;;;;;;21.80;9.10;;;;;;;6.15;54.78;100813.00;106086;1274;95208;-68
2022/03/11 10:04:58;;;;;;;23.10;9.20;;;;;;;6.06;55.15;100812.35;106071;1273;107789;-70
2022/03/11 10:08:04;;;;;;;21.60;8.20;;;;;;;6.10;55.11;100815.08;106056;1273;95462;-69
2022/03/11 10:10:35;;;;;;;19.00;8.20;;;;;;;6.11;55.04;100815.21;106122;1274;95217;-68
2022/03/11 10:13:14;;;;;;;24.20;9.10;;;;;;;6.12;54.78;100817.48;105915;1273;113500;-68
2022/03/11 10:15:43;;;;;;;21.70;8.90;;;;;;;6.18;54.95;100814.15;106088;1274;95287;-69
2022/03/11 10:18:16;;;;;;;24.40;9.80;;;;;;;6.17;54.36;100813.48;106127;1273;107830;-67
2022/03/11 10:20:44;;;;;;;23.30;9.10;;;;;;;6.17;54.23;100814.89;106072;1273;98062;-67
2022/03/11 10:23:15;;;;;;;22.90;8.80;;;;;;;6.26;54.89;100820.13;105941;1274;97928;-67
2022/03/11 10:25:52;;;;;;;19.80;8.00;;;;;;;6.20;53.98;100821.14;106110;1273;111190;-68
2022/03/11 10:28:21;;;;;;;20.80;8.30;;;;;;;5.83;53.93;100822.05;106129;1274;97965;-65
2022/03/11 10:30:50;;;;;;;22.70;8.50;;;;;;;5.77;54.09;100820.09;106063;1274;108400;-68
2022/03/11 10:33:21;;;;;;;23.00;8.90;;;;;;;5.83;53.88;100821.52;106078;1273;98333;-65
2022/03/11 10:35:49;;;;;;;20.80;8.00;;;;;;;5.72;53.45;100828.48;106064;1274;98567;-68
2022/03/11 10:38:36;;;;;;;21.40;8.10;;;;;;;5.60;53.83;100827.90;106097;1274;112026;-65
2022/03/11 10:41:05;;;;;;;19.60;7.50;;;;;;;5.62;53.93;100824.50;106134;1273;95270;-68
2022/03/11 10:43:35;;;;;;;22.30;7.70;;;;;;;5.69;54.16;100825.23;106188;1273;108366;-68
2022/03/11 10:46:06;;;;;;;21.30;7.70;;;;;;;5.61;53.53;100824.17;106145;1274;97943;-66
2022/03/11 10:48:44;;;;;;;21.30;7.70;;;;;;;5.55;53.00;100818.34;106167;1273;97881;-68
2022/03/11 10:51:32;;;;;;;23.20;8.50;;;;;;;5.59;53.42;100822.27;106140;1274;111334;-65
2022/03/11 10:54:04;;;;;;;20.40;7.10;;;;;;;5.60;52.92;100820.48;106147;1273;95377;-67
2022/03/11 10:56:39;;;;;;;19.10;6.10;;;;;;;5.51;52.67;100817.91;106046;1274;108150;-67
2022/03/11 10:59:28;;;;;;;22.30;7.70;;;;;;;5.20;51.80;100815.78;106135;1274;97855;-68
2022/03/11 11:01:58;;;;;;;18.30;6.30;;;;;;;5.00;52.46;100813.75;106014;1273;97856;-68
2022/03/11 11:04:27;;;;;;;19.00;6.10;;;;;;;5.15;52.54;100815.55;106020;1274;109841;-68
2022/03/11 11:06:56;;;;;;;13.20;4.90;;;;;;;5.22;52.41;100811.86;106055;1274;97947;-70
2022/03/11 11:09:27;;;;;;;17.20;6.50;;;;;;;5.34;52.38;100808.79;106052;1274;108766;-67
2022/03/11 11:11:57;;;;;;;19.50;6.20;;;;;;;5.45;52.14;100804.67;106208;1273;96277;-69
2022/03/11 11:14:26;;;;;;;18.30;5.70;;;;;;;5.50;51.94;100807.70;106139;1274;97842;-69
2022/03/11 11:17:00;;;;;;;13.20;4.90;;;;;;;5.59;52.21;100801.34;106139;1274;111773;-68